Aeroporto :
LOGIN :

Iscrizione | Disclaimer

   EN    FR    IT 

 










Sommario :    VFR   VFR Marginale   IFR   IFR Intensivo   IFR Molto Intensivo
Visibilità : 
Base nubi : 
>= 8 km
>= 3000ft
5 / 8 km
1000 / 3000 ft
1500m / 5 km
500 / 1000 ft
800 / 1500m
200 / 500 ft
< 800m
< 200 ft
Simboli :   Temporali  Nebbia  Neve Forte  Precipitazioni Forti  Vento > 20 kt
SIGMETs :   Varie  Temporali  Ghiacco  Turbolenza  Onda orograficha  Ceneri Vulcaniche






- Altitudine del aeroporto : -13 ft
- Codice IATA : LEY


EHLE - Lelystad

ULTIMO METAR :
  • 220955Z AUTO 23005KT 1300 R23/1400N BR OVC001 04/04 Q1036 NOSIG

METARs OBSOLETI :
  • 220925Z AUTO 22005KT 1000 R23/1300U BR OVC001 04/04 Q1036 NOSIG
  • 220855Z AUTO 23004KT 0900 R23/1300N BR VV001 04/04 Q1036 NOSIG
  • 220825Z AUTO 23005KT 0900 R23/1300N FG VV001 04/04 Q1036 REDZ NOSIG
  • 220755Z AUTO 23005KT 0800 R23/1300D -DZ VV001 03/03 Q1036 NOSIG
  • 220725Z AUTO 22005KT 1200 R23/1700D BR OVC001 03/03 Q1036 NOSIG

TAF TAF EHLE
Valido dal 22 a 06 ore il 23 a 12 ore UTC


220521Z 2206/2312 21005KT 2000 BR SCT001 BKN002 OVC004
BECMG 2210/2213 VRB03KT
PROB40 2210/2312 0600 FG BKN001
PROB30 2213/2217 6000 NSW SCT018



MetMap, La meteo Aeronautica in un colpo d'occhio ! - Copyright ORBIFLY Dicembre 2007 - Disclaimer

ORBIFLY MET'MAP TEAM :

Programmazione e sviluppo : Alexandra Zaïnal
Concezione : Baudouin d'Aumeries
Aiuto per la programmazione : Marc-Olivier Méhu
Supporto tecnico e logistico : Manuel Goepfert
Aiuto per la traduzione : Arnaldo La Scala

Contatto : metmap@orbifly.com




FONTI E CREDITI :

   NOAA